Social Circle, Georgia
Current Conditions -  °F | °C
As of 4:55 PM on Saturday 25 Oct 2014 (Local Time) from KCVC Reporting Station
Clear Clear  
Wind Chill: 77°   Ceiling: Unl
Heat Index: 77°   Visibility: 10mi
Dew Point: 37°   Wind: 3mph
Humidity: 24%   Direction: 270°W
Pressure: 29.99"   Gusts: NA
Location:  33.66°N, 83.72°W
Report Text: KCVC 252055Z AUTO 27003KT 10SM CLR 25/03 A2999 RMK AO2
Loading
Personal Weather Stations






























Interactive Weather Map
Tropical Storm Tracking
New forecast layout! Learn more

10-Day Weather Forecast

Advertisements
Track Severe Weather on mobile